createdAt,value
2022-11-27T00:01:18.713Z,99899.00
2022-11-27T00:04:08.450Z,99901.00
2022-11-27T00:06:56.012Z,99902.00
2022-11-27T00:09:43.758Z,99901.00
2022-11-27T00:12:31.731Z,99904.00
2022-11-27T00:15:19.145Z,99896.00
2022-11-27T00:18:06.590Z,99900.00
2022-11-27T00:20:53.970Z,99896.00
2022-11-27T00:23:41.977Z,99904.00
2022-11-27T00:26:37.233Z,99902.00
2022-11-27T00:29:29.317Z,99890.00
2022-11-27T00:32:16.865Z,99887.00
2022-11-27T00:35:04.720Z,99886.00
2022-11-27T00:37:52.222Z,99887.00
2022-11-27T00:40:39.645Z,99888.00
2022-11-27T00:43:27.081Z,99886.00
2022-11-27T00:46:16.910Z,99880.00
2022-11-27T00:49:07.467Z,99889.00
2022-11-27T00:51:54.866Z,99889.00
2022-11-27T00:54:42.549Z,99896.00
2022-11-27T00:57:30.327Z,99890.00
2022-11-27T01:00:18.741Z,99891.00
2022-11-27T01:03:06.339Z,99886.00
2022-11-27T01:05:54.882Z,99889.00
2022-11-27T01:08:42.501Z,99890.00
2022-11-27T01:11:33.779Z,99893.00
2022-11-27T01:14:21.162Z,99888.00
2022-11-27T01:17:08.621Z,99891.00
2022-11-27T01:19:55.990Z,99894.00
2022-11-27T01:22:43.386Z,99897.00
2022-11-27T01:25:30.856Z,99901.00
2022-11-27T01:28:18.351Z,99899.00
2022-11-27T01:31:14.545Z,99889.00
2022-11-27T01:34:09.232Z,99884.00
2022-11-27T01:36:56.632Z,99884.00
2022-11-27T01:39:44.083Z,99885.00
2022-11-27T01:42:31.501Z,99878.00
2022-11-27T01:45:21.386Z,99876.00
2022-11-27T01:48:13.091Z,99880.00
2022-11-27T01:51:00.941Z,99874.00
2022-11-27T01:53:49.700Z,99868.00
2022-11-27T01:56:40.393Z,99866.00
2022-11-27T01:59:27.985Z,99860.00
2022-11-27T02:02:15.829Z,99857.00
2022-11-27T02:05:03.801Z,99853.00
2022-11-27T02:07:53.228Z,99859.00
2022-11-27T02:10:59.746Z,99851.00
2022-11-27T02:14:23.948Z,99849.00
2022-11-27T02:17:21.415Z,99854.00
2022-11-27T02:20:30.176Z,99840.00
2022-11-27T02:23:45.486Z,99835.00
2022-11-27T02:26:52.496Z,99838.00
2022-11-27T02:29:42.722Z,99828.00
2022-11-27T02:32:51.941Z,99826.00
2022-11-27T02:35:55.281Z,99828.00
2022-11-27T02:38:53.281Z,99825.00
2022-11-27T02:41:50.651Z,99829.00
2022-11-27T02:44:47.551Z,99833.00
2022-11-27T02:47:35.430Z,99834.00
2022-11-27T02:50:26.827Z,99831.00
2022-11-27T02:53:29.517Z,99829.00
2022-11-27T02:56:22.521Z,99812.00
2022-11-27T02:59:13.989Z,99810.00
2022-11-27T03:02:10.190Z,99807.00
2022-11-27T03:05:03.483Z,99808.00
2022-11-27T03:08:28.676Z,99805.00
2022-11-27T03:11:17.077Z,99820.00
2022-11-27T03:14:10.125Z,99813.00
2022-11-27T03:17:21.886Z,99809.00
2022-11-27T03:20:33.507Z,99810.00
2022-11-27T03:23:21.031Z,99818.00
2022-11-27T03:26:08.723Z,99803.00
2022-11-27T03:28:59.889Z,99802.00
2022-11-27T03:31:48.512Z,99806.00
2022-11-27T03:34:36.898Z,99803.00
2022-11-27T03:37:25.319Z,99810.00
2022-11-27T03:40:14.186Z,99803.00
2022-11-27T03:43:17.991Z,99808.00
2022-11-27T03:46:22.610Z,99811.00
2022-11-27T03:49:28.677Z,99812.00
2022-11-27T03:52:53.237Z,99809.00
2022-11-27T03:56:16.827Z,99820.00
2022-11-27T03:59:27.607Z,99802.00
2022-11-27T04:02:18.029Z,99811.00
2022-11-27T04:05:06.157Z,99807.00
2022-11-27T04:07:53.694Z,99802.00
2022-11-27T04:10:41.187Z,99803.00
2022-11-27T04:13:28.748Z,99798.00
2022-11-27T04:16:16.282Z,99800.00
2022-11-27T04:19:04.321Z,99795.00
2022-11-27T04:21:51.727Z,99792.00
2022-11-27T04:24:39.403Z,99806.00
2022-11-27T04:27:27.053Z,99802.00
2022-11-27T04:30:15.022Z,99790.00
2022-11-27T04:33:02.633Z,99793.00
2022-11-27T04:35:51.641Z,99792.00
2022-11-27T04:38:39.401Z,99787.00
2022-11-27T04:41:26.841Z,99786.00
2022-11-27T04:44:14.982Z,99794.00
2022-11-27T04:47:02.929Z,99790.00
2022-11-27T04:49:50.586Z,99789.00
2022-11-27T04:52:38.211Z,99788.00
2022-11-27T04:55:25.681Z,99785.00
2022-11-27T04:58:13.171Z,99788.00
2022-11-27T05:01:00.635Z,99782.00
2022-11-27T05:03:49.161Z,99779.00
2022-11-27T05:06:36.658Z,99789.00
2022-11-27T05:09:24.326Z,99795.00
2022-11-27T05:12:11.817Z,99787.00
2022-11-27T05:15:04.058Z,99783.00
2022-11-27T05:17:51.940Z,99782.00
2022-11-27T05:20:39.791Z,99776.00
2022-11-27T05:23:28.204Z,99790.00
2022-11-27T05:26:15.663Z,99783.00
2022-11-27T05:29:04.117Z,99790.00
2022-11-27T05:31:52.600Z,99797.00
2022-11-27T05:34:40.709Z,99792.00
2022-11-27T05:37:28.341Z,99785.00
2022-11-27T05:40:15.881Z,99792.00
2022-11-27T05:43:03.992Z,99787.00
2022-11-27T05:45:51.838Z,99777.00
2022-11-27T05:48:39.478Z,99779.00
2022-11-27T05:51:27.201Z,99784.00
2022-11-27T05:54:14.802Z,99783.00
2022-11-27T05:57:02.412Z,99775.00
2022-11-27T05:59:49.956Z,99771.00
2022-11-27T06:02:37.720Z,99781.00
2022-11-27T06:05:25.797Z,99776.00
2022-11-27T06:08:15.962Z,99780.00
2022-11-27T06:11:12.872Z,99777.00
2022-11-27T06:14:00.472Z,99783.00
2022-11-27T06:16:48.050Z,99788.00
2022-11-27T06:19:35.499Z,99788.00
2022-11-27T06:22:23.142Z,99792.00
2022-11-27T06:25:10.732Z,99791.00
2022-11-27T06:27:58.757Z,99786.00
2022-11-27T06:30:46.562Z,99790.00
2022-11-27T06:33:34.751Z,99788.00
2022-11-27T06:36:26.917Z,99802.00
2022-11-27T06:39:14.817Z,99796.00
2022-11-27T06:42:02.676Z,99801.00
2022-11-27T06:44:50.286Z,99802.00
2022-11-27T06:47:37.948Z,99800.00
2022-11-27T06:50:26.631Z,99802.00
2022-11-27T06:53:14.053Z,99800.00
2022-11-27T06:56:05.792Z,99797.00
2022-11-27T06:58:56.228Z,99791.00
2022-11-27T07:01:44.189Z,99790.00
2022-11-27T07:04:31.646Z,99786.00
2022-11-27T07:07:19.744Z,99776.00
2022-11-27T07:10:08.667Z,99775.00
2022-11-27T07:12:56.313Z,99768.00
2022-11-27T07:15:44.422Z,99770.00
2022-11-27T07:18:37.162Z,99763.00
2022-11-27T07:21:25.802Z,99764.00
2022-11-27T07:24:13.307Z,99770.00
2022-11-27T07:27:00.701Z,99770.00
2022-11-27T07:29:48.432Z,99767.00
2022-11-27T07:32:35.829Z,99765.00
2022-11-27T07:35:23.351Z,99773.00
2022-11-27T07:38:10.842Z,99761.00
2022-11-27T07:41:03.532Z,99770.00
2022-11-27T07:43:51.087Z,99768.00
2022-11-27T07:46:38.741Z,99773.00
2022-11-27T07:49:26.267Z,99757.00
2022-11-27T07:52:14.074Z,99759.00
2022-11-27T07:55:01.792Z,99757.00
2022-11-27T07:57:49.260Z,99759.00
2022-11-27T08:00:38.146Z,99750.00
2022-11-27T08:03:26.731Z,99757.00
2022-11-27T08:06:24.203Z,99761.00
2022-11-27T08:09:11.817Z,99750.00
2022-11-27T08:11:59.568Z,99755.00
2022-11-27T08:14:47.081Z,99759.00
2022-11-27T08:17:35.076Z,99759.00
2022-11-27T08:20:22.751Z,99758.00
2022-11-27T08:23:10.587Z,99759.00
2022-11-27T08:25:58.013Z,99757.00
2022-11-27T08:28:45.682Z,99754.00
2022-11-27T08:31:34.246Z,99760.00
2022-11-27T08:34:21.821Z,99762.00
2022-11-27T08:37:09.802Z,99761.00
2022-11-27T08:39:57.502Z,99759.00
2022-11-27T08:42:44.971Z,99757.00
2022-11-27T08:45:33.185Z,99747.00
2022-11-27T08:48:23.063Z,99745.00
2022-11-27T08:51:16.088Z,99744.00
2022-11-27T08:54:03.926Z,99743.00
2022-11-27T08:56:54.226Z,99733.00
2022-11-27T08:59:41.612Z,99743.00
2022-11-27T09:02:29.152Z,99745.00
2022-11-27T09:05:17.156Z,99737.00
2022-11-27T09:08:05.781Z,99737.00
2022-11-27T09:10:53.321Z,99732.00
2022-11-27T09:13:42.757Z,99727.00
2022-11-27T09:16:31.195Z,99713.00
2022-11-27T09:19:19.710Z,99711.00
2022-11-27T09:22:07.485Z,99706.00
2022-11-27T09:24:55.172Z,99711.00
2022-11-27T09:27:42.882Z,99709.00
2022-11-27T09:30:30.432Z,99702.00
2022-11-27T09:33:17.905Z,99701.00
2022-11-27T09:36:11.875Z,99704.00
2022-11-27T09:39:00.345Z,99700.00
2022-11-27T09:41:55.239Z,99690.00
2022-11-27T09:44:59.871Z,99684.00
2022-11-27T09:48:02.613Z,99687.00
2022-11-27T09:50:54.762Z,99678.00
2022-11-27T09:54:00.641Z,99679.00
2022-11-27T09:56:53.784Z,99677.00
2022-11-27T09:59:51.088Z,99685.00
2022-11-27T10:02:38.720Z,99690.00
2022-11-27T10:05:36.648Z,99683.00
2022-11-27T10:08:42.167Z,99680.00
2022-11-27T10:12:00.262Z,99667.00
2022-11-27T10:14:50.586Z,99651.00
2022-11-27T10:17:43.566Z,99649.00
2022-11-27T10:21:02.283Z,99649.00
2022-11-27T10:24:17.031Z,99650.00
2022-11-27T10:27:28.071Z,99645.00
2022-11-27T10:30:21.586Z,99642.00
2022-11-27T10:33:23.867Z,99623.00
2022-11-27T10:36:22.094Z,99620.00
2022-11-27T10:39:54.166Z,99621.00
2022-11-27T10:42:49.622Z,99615.00
2022-11-27T10:46:05.367Z,99608.00
2022-11-27T10:48:53.475Z,99593.00
2022-11-27T10:51:42.146Z,99591.00
2022-11-27T10:54:39.977Z,99584.00
2022-11-27T10:58:17.701Z,99575.00
2022-11-27T11:01:18.692Z,99572.00
2022-11-27T11:04:36.866Z,99569.00
2022-11-27T11:07:30.284Z,99556.00
2022-11-27T11:10:30.191Z,99566.00
2022-11-27T11:13:30.286Z,99548.00
2022-11-27T11:16:27.341Z,99539.00
2022-11-27T11:19:31.867Z,99539.00
2022-11-27T11:22:20.173Z,99549.00
2022-11-27T11:25:19.376Z,99540.00
2022-11-27T11:28:07.072Z,99528.00
2022-11-27T11:31:09.326Z,99534.00
2022-11-27T11:34:05.469Z,99538.00
2022-11-27T11:37:05.941Z,99529.00
2022-11-27T11:40:06.021Z,99531.00
2022-11-27T11:43:05.937Z,99524.00
2022-11-27T11:45:53.435Z,99523.00
2022-11-27T11:48:40.988Z,99513.00
2022-11-27T11:51:49.822Z,99519.00
2022-11-27T11:55:11.126Z,99506.00
2022-11-27T11:59:04.441Z,99505.00
2022-11-27T12:02:24.058Z,99493.00
2022-11-27T12:06:17.744Z,99490.00
2022-11-27T12:09:20.950Z,99484.00
2022-11-27T12:12:35.706Z,99483.00
2022-11-27T12:15:49.781Z,99478.00
2022-11-27T12:19:32.766Z,99475.00
2022-11-27T12:22:40.336Z,99467.00
2022-11-27T12:25:36.818Z,99455.00
2022-11-27T12:29:17.155Z,99461.00
2022-11-27T12:32:43.402Z,99451.00
2022-11-27T12:35:42.463Z,99444.00
2022-11-27T12:38:59.383Z,99446.00
2022-11-27T12:42:00.345Z,99455.00
2022-11-27T12:44:48.122Z,99439.00
2022-11-27T12:47:53.621Z,99440.00
2022-11-27T12:51:04.032Z,99435.00
2022-11-27T12:54:04.195Z,99430.00
2022-11-27T12:56:58.264Z,99429.00
2022-11-27T13:00:02.159Z,99426.00
2022-11-27T13:03:25.157Z,99429.00
2022-11-27T13:06:19.946Z,99432.00
2022-11-27T13:09:26.271Z,99416.00
2022-11-27T13:12:29.715Z,99422.00
2022-11-27T13:15:30.492Z,99415.00
2022-11-27T13:18:31.069Z,99417.00
2022-11-27T13:21:29.293Z,99414.00
2022-11-27T13:24:17.086Z,99420.00
2022-11-27T13:27:18.524Z,99419.00
2022-11-27T13:30:09.643Z,99418.00
2022-11-27T13:33:01.839Z,99420.00
2022-11-27T13:35:50.002Z,99418.00
2022-11-27T13:38:42.025Z,99423.00
2022-11-27T13:41:41.367Z,99424.00
2022-11-27T13:44:31.056Z,99403.00
2022-11-27T13:47:22.759Z,99401.00
2022-11-27T13:50:18.017Z,99400.00
2022-11-27T13:53:07.499Z,99402.00
2022-11-27T13:55:58.105Z,99398.00
2022-11-27T13:58:45.788Z,99386.00
2022-11-27T14:01:33.307Z,99387.00
2022-11-27T14:04:20.822Z,99381.00
2022-11-27T14:07:16.230Z,99387.00
2022-11-27T14:10:17.540Z,99370.00
2022-11-27T14:13:10.152Z,99379.00
2022-11-27T14:16:02.223Z,99373.00
2022-11-27T14:18:53.492Z,99370.00
2022-11-27T14:21:44.135Z,99356.00
2022-11-27T14:24:45.041Z,99356.00
2022-11-27T14:27:36.489Z,99355.00
2022-11-27T14:30:33.223Z,99349.00
2022-11-27T14:33:27.917Z,99349.00
2022-11-27T14:36:30.801Z,99351.00
2022-11-27T14:39:31.652Z,99345.00
2022-11-27T14:42:30.083Z,99349.00
2022-11-27T14:45:22.407Z,99344.00
2022-11-27T14:48:21.425Z,99353.00
2022-11-27T14:51:22.447Z,99333.00
2022-11-27T14:54:29.807Z,99337.00
2022-11-27T14:57:27.960Z,99341.00
2022-11-27T15:00:17.321Z,99344.00
2022-11-27T15:03:11.361Z,99334.00
2022-11-27T15:06:05.341Z,99335.00
2022-11-27T15:09:23.591Z,99335.00
2022-11-27T15:12:17.307Z,99334.00
2022-11-27T15:15:30.272Z,99328.00
2022-11-27T15:18:23.696Z,99325.00
2022-11-27T15:21:20.527Z,99320.00
2022-11-27T15:24:35.541Z,99320.00
2022-11-27T15:27:23.580Z,99314.00
2022-11-27T15:30:16.896Z,99322.00
2022-11-27T15:33:04.446Z,99312.00
2022-11-27T15:35:54.025Z,99310.00
2022-11-27T15:38:43.004Z,99305.00
2022-11-27T15:41:31.006Z,99297.00
2022-11-27T15:44:18.901Z,99292.00
2022-11-27T15:47:29.087Z,99295.00
2022-11-27T15:50:17.519Z,99287.00
2022-11-27T15:53:04.954Z,99287.00
2022-11-27T15:55:52.356Z,99289.00
2022-11-27T15:58:40.019Z,99284.00
2022-11-27T16:01:27.579Z,99289.00
2022-11-27T16:04:14.977Z,99281.00
2022-11-27T16:07:02.427Z,99286.00
2022-11-27T16:09:49.848Z,99285.00
2022-11-27T16:12:38.993Z,99285.00
2022-11-27T16:15:32.613Z,99270.00
2022-11-27T16:18:20.786Z,99271.00
2022-11-27T16:21:12.336Z,99273.00
2022-11-27T16:24:03.464Z,99271.00
2022-11-27T16:26:51.012Z,99265.00
2022-11-27T16:29:38.572Z,99272.00
2022-11-27T16:32:26.011Z,99258.00
2022-11-27T16:35:13.755Z,99259.00
2022-11-27T16:38:01.430Z,99260.00
2022-11-27T16:40:50.496Z,99261.00
2022-11-27T16:43:45.562Z,99254.00
2022-11-27T16:46:33.076Z,99248.00
2022-11-27T16:49:21.980Z,99251.00
2022-11-27T16:52:11.261Z,99253.00
2022-11-27T16:54:58.697Z,99250.00
2022-11-27T16:57:47.177Z,99246.00
2022-11-27T17:00:34.699Z,99238.00
2022-11-27T17:03:22.286Z,99234.00
2022-11-27T17:06:12.543Z,99237.00
2022-11-27T17:09:03.528Z,99233.00
2022-11-27T17:11:51.391Z,99225.00
2022-11-27T17:14:39.741Z,99221.00
2022-11-27T17:17:27.548Z,99216.00
2022-11-27T17:20:15.413Z,99213.00
2022-11-27T17:23:03.408Z,99216.00
2022-11-27T17:25:51.131Z,99220.00
2022-11-27T17:28:39.108Z,99218.00
2022-11-27T17:31:32.943Z,99212.00
2022-11-27T17:34:21.159Z,99201.00
2022-11-27T17:37:09.081Z,99208.00
2022-11-27T17:39:56.836Z,99208.00
2022-11-27T17:42:44.521Z,99202.00
2022-11-27T17:45:32.514Z,99202.00
2022-11-27T17:48:20.186Z,99198.00
2022-11-27T17:51:08.046Z,99193.00
2022-11-27T17:53:58.072Z,99192.00
2022-11-27T17:56:51.251Z,99190.00
2022-11-27T17:59:39.304Z,99176.00
2022-11-27T18:02:27.621Z,99178.00
2022-11-27T18:05:15.232Z,99169.00
2022-11-27T18:08:02.967Z,99162.00
2022-11-27T18:10:50.909Z,99153.00
2022-11-27T18:13:38.820Z,99156.00
2022-11-27T18:16:32.378Z,99155.00
2022-11-27T18:19:20.902Z,99150.00
2022-11-27T18:22:09.361Z,99153.00
2022-11-27T18:24:56.993Z,99147.00
2022-11-27T18:27:44.874Z,99145.00
2022-11-27T18:30:34.606Z,99145.00
2022-11-27T18:33:22.172Z,99143.00
2022-11-27T18:36:12.455Z,99146.00
2022-11-27T18:39:04.199Z,99136.00
2022-11-27T18:41:53.008Z,99136.00
2022-11-27T18:44:44.834Z,99133.00
2022-11-27T18:47:33.638Z,99137.00
2022-11-27T18:50:24.355Z,99138.00
2022-11-27T18:53:14.692Z,99134.00
2022-11-27T18:56:11.806Z,99132.00
2022-11-27T18:59:07.263Z,99115.00
2022-11-27T19:01:54.859Z,99116.00
2022-11-27T19:04:44.951Z,99114.00
2022-11-27T19:07:33.060Z,99113.00
2022-11-27T19:10:21.561Z,99103.00
2022-11-27T19:13:09.501Z,99097.00
2022-11-27T19:15:58.597Z,99097.00
2022-11-27T19:18:47.698Z,99090.00
2022-11-27T19:21:36.671Z,99081.00
2022-11-27T19:24:24.331Z,99080.00
2022-11-27T19:27:12.205Z,99078.00
2022-11-27T19:29:59.837Z,99084.00
2022-11-27T19:32:48.416Z,99077.00
2022-11-27T19:35:37.013Z,99062.00
2022-11-27T19:38:24.666Z,99070.00
2022-11-27T19:41:18.013Z,99061.00
2022-11-27T19:44:07.385Z,99066.00
2022-11-27T19:46:55.161Z,99052.00
2022-11-27T19:49:43.286Z,99044.00
2022-11-27T19:52:30.711Z,99053.00
2022-11-27T19:55:18.361Z,99050.00
2022-11-27T19:58:05.905Z,99044.00
2022-11-27T20:00:54.350Z,99044.00
2022-11-27T20:03:44.347Z,99047.00
2022-11-27T20:06:32.348Z,99041.00
2022-11-27T20:09:20.018Z,99043.00
2022-11-27T20:12:07.561Z,99048.00
2022-11-27T20:14:55.213Z,99039.00
2022-11-27T20:17:44.333Z,99033.00
2022-11-27T20:20:34.189Z,99027.00
2022-11-27T20:23:22.064Z,99024.00
2022-11-27T20:26:15.545Z,99026.00
2022-11-27T20:29:03.227Z,99019.00
2022-11-27T20:31:50.786Z,99022.00
2022-11-27T20:34:38.552Z,99030.00
2022-11-27T20:37:27.453Z,99026.00
2022-11-27T20:40:15.271Z,99013.00
2022-11-27T20:43:02.905Z,99009.00
2022-11-27T20:45:53.352Z,98998.00
2022-11-27T20:48:41.313Z,98992.00
2022-11-27T20:51:34.119Z,98981.00
2022-11-27T20:54:21.788Z,98980.00
2022-11-27T20:57:14.070Z,98983.00
2022-11-27T21:00:01.866Z,98976.00
2022-11-27T21:02:49.494Z,98982.00
2022-11-27T21:05:37.312Z,98986.00
2022-11-27T21:08:24.901Z,98981.00
2022-11-27T21:11:25.285Z,98981.00
2022-11-27T21:14:16.020Z,98967.00
2022-11-27T21:17:05.237Z,98973.00
2022-11-27T21:19:53.151Z,98971.00
2022-11-27T21:22:43.548Z,98974.00
2022-11-27T21:25:30.946Z,98966.00
2022-11-27T21:28:18.672Z,98976.00
2022-11-27T21:31:07.821Z,98976.00
2022-11-27T21:33:59.722Z,98970.00
2022-11-27T21:36:47.381Z,98969.00
2022-11-27T21:39:36.026Z,98968.00
2022-11-27T21:42:24.350Z,98967.00
2022-11-27T21:45:12.153Z,98952.00
2022-11-27T21:47:59.531Z,98948.00
2022-11-27T21:50:47.632Z,98942.00
2022-11-27T21:53:35.080Z,98942.00
2022-11-27T21:56:27.540Z,98946.00
2022-11-27T21:59:16.586Z,98945.00
2022-11-27T22:02:04.584Z,98948.00
2022-11-27T22:04:52.181Z,98950.00
2022-11-27T22:07:40.234Z,98945.00
2022-11-27T22:10:27.890Z,98938.00
2022-11-27T22:13:15.381Z,98943.00
2022-11-27T22:16:13.176Z,98940.00
2022-11-27T22:19:02.275Z,98934.00
2022-11-27T22:21:49.781Z,98925.00
2022-11-27T22:24:37.563Z,98927.00
2022-11-27T22:27:24.972Z,98920.00
2022-11-27T22:30:12.698Z,98919.00
2022-11-27T22:33:00.595Z,98922.00
2022-11-27T22:35:48.502Z,98908.00
2022-11-27T22:38:35.866Z,98903.00
2022-11-27T22:41:26.986Z,98902.00
2022-11-27T22:44:21.471Z,98883.00
2022-11-27T22:47:08.922Z,98884.00
2022-11-27T22:49:56.646Z,98879.00
2022-11-27T22:52:44.485Z,98876.00
2022-11-27T22:55:32.186Z,98871.00
2022-11-27T22:58:19.846Z,98872.00
2022-11-27T23:01:13.813Z,98864.00
2022-11-27T23:04:01.995Z,98860.00
2022-11-27T23:06:49.733Z,98848.00
2022-11-27T23:09:38.265Z,98843.00
2022-11-27T23:12:27.471Z,98844.00
2022-11-27T23:15:15.231Z,98843.00
2022-11-27T23:18:03.229Z,98844.00
2022-11-27T23:20:50.621Z,98850.00
2022-11-27T23:23:38.914Z,98842.00
2022-11-27T23:26:26.381Z,98847.00
2022-11-27T23:29:16.334Z,98848.00
2022-11-27T23:32:04.242Z,98843.00
2022-11-27T23:34:52.181Z,98835.00
2022-11-27T23:37:40.191Z,98826.00
2022-11-27T23:40:28.184Z,98826.00
2022-11-27T23:43:16.200Z,98824.00
2022-11-27T23:46:06.778Z,98826.00
2022-11-27T23:48:57.271Z,98821.00
2022-11-27T23:51:44.676Z,98814.00
2022-11-27T23:54:32.107Z,98804.00
2022-11-27T23:57:20.026Z,98801.00
